Latest Weather Observations for Nambour

IDQ60801

Issued at 11:12 pm EST Friday 15 November 2019 (issued every 10 minutes, with the page automatically refreshed every 10 minutes)

About weather observations | Map of weather stations | Latest weather observations for QLD | Other Formats
Station Details ID: 040988 Name: NAMBOUR DAFF - HILLSIDE Lat: -26.64 Lon: 152.94 Height: 53.24 m
Data from the previous 72 hours. | See also: Recent months at Nambour
Date/Time
EST
Temp
°C
App
Temp
°C
Dew
Point
°C
Rel
Hum
%
Delta-T
°C
Wind Press
QNH
hPa
Press
MSL
hPa
Rain since
9am
mm
Dir  Spd
km/h
Gust
km/h
Spd
kts
Gust
kts
15/11:00pm 23.4 24.5 18.1 72 3.3 N 9 19 5 10 1014.0 1013.8 0.0
15/10:30pm 23.6 25.1 18.0 71 3.5 NNW 7 15 4 8 1014.0 1013.8 0.0
15/10:00pm 23.8 25.3 18.0 70 3.6 N 7 11 4 6 1013.9 1013.7 0.0
15/09:30pm 24.2 24.9 17.9 68 4.0 NNW 11 19 6 10 1013.6 1013.4 0.0
15/09:00pm 24.5 25.5 17.7 66 4.3 N 9 22 5 12 1013.5 1013.3 0.0
15/08:30pm 24.7 26.1 17.4 64 4.6 N 6 11 3 6 1013.3 1013.1 0.0
15/08:00pm 25.1 26.4 17.1 61 5.0 N 6 7 3 4 1012.8 1012.6 0.0
15/07:30pm 25.3 26.6 17.0 60 5.2 NNE 6 9 3 5 1012.5 1012.3 0.0
15/07:00pm 26.0 26.9 16.5 55 5.9 N 7 13 4 7 1012.2 1012.0 0.0
15/06:30pm 26.8 27.2 16.4 53 6.4 N 9 15 5 8 1011.8 1011.5 0.0
15/06:00pm 27.7 27.5 16.6 50 6.9 N 13 20 7 11 1011.3 1011.0 0.0
15/05:30pm 28.1 28.9 19.1 58 5.8 NNE 13 26 7 14 1011.0 1010.7 0.0
15/05:00pm 28.4 28.6 19.3 57 5.9 N 17 26 9 14 1010.4 1010.1 0.0
15/04:30pm 28.6 29.4 19.8 59 5.8 NNE 15 22 8 12 1010.1 1009.8 0.0
15/04:00pm 28.6 29.2 19.5 58 5.9 NE 15 28 8 15 1010.1 1009.8 0.0
15/03:30pm 29.1 29.4 19.7 57 6.2 ENE 17 28 9 15 1010.1 1009.8 0.0
15/03:00pm 29.2 29.5 19.5 56 6.3 NE 17 26 9 14 1010.2 1009.9 0.0
15/02:30pm 29.9 31.9 20.7 57 6.1 ENE 11 20 6 11 1010.4 1010.1 0.0
15/02:00pm 29.5 32.3 20.9 60 5.7 NE 7 15 4 8 1010.8 1010.5 0.0
15/01:30pm 29.2 29.6 20.6 59 5.7 ENE 19 30 10 16 1011.0 1010.7 0.0
15/01:00pm 29.5 30.6 20.4 58 6.0 ENE 15 26 8 14 1011.5 1011.2 0.0
15/12:30pm 30.2 31.3 20.4 55 6.5 ENE 15 30 8 16 1011.9 1011.6 0.0
15/12:00pm 30.9 31.3 17.2 43 8.7 N 11 22 6 12 1012.5 1012.3 0.0
15/11:30am 29.9 30.4 17.4 47 7.9 NNE 11 17 6 9 1013.1 1012.9 0.0
15/11:00am 29.0 29.3 16.9 48 7.6 NNW 11 24 6 13 1013.8 1013.6 0.0
15/10:30am 28.3 28.8 17.5 52 6.8 NNW 11 17 6 9 1014.4 1014.2 0.0
15/10:00am 28.2 29.4 18.3 55 6.3 NW 9 19 5 10 1014.8 1014.6 0.0
15/09:30am 27.2 27.9 17.9 56 5.9 NW 11 17 6 9 1015.0 1014.8 0.0
15/09:00am 27.2 28.0 18.2 58 5.7 N 11 22 6 12 1015.1 1014.9 0.0
15/08:30am 26.4 27.5 18.8 63 4.9 NW 11 24 6 13 1015.2 1015.0 0.0
15/08:00am 25.2 27.1 18.9 68 4.0 NNE 7 11 4 6 1015.2 1015.0 0.0
15/07:30am 24.1 26.6 19.8 77 2.8 N 6 9 3 5 1015.3 1015.1 0.0
15/07:00am 22.9 26.6 19.9 83 1.9 CALM 0 4 0 2 1015.3 1015.1 0.0
15/06:30am 21.3 25.2 20.3 94 0.6 CALM 0 0 0 0 1015.1 1014.9 0.0
15/06:00am 20.4 24.2 20.2 99 0.1 CALM 0 0 0 0 1014.8 1014.6 0.0
15/05:30am 19.7 23.2 19.5 99 0.1 CALM 0 0 0 0 1014.6 1014.4 0.0
15/05:00am 19.0 22.0 18.5 97 0.3 CALM 0 0 0 0 1014.1 1013.9 0.0
15/04:30am 19.9 23.4 19.6 98 0.2 CALM 0 0 0 0 1013.6 1013.4 0.0
15/04:00am 19.9 23.2 19.2 96 0.4 CALM 0 0 0 0 1013.4 1013.2 0.0
15/03:30am 20.3 23.8 19.6 96 0.4 CALM 0 0 0 0 1013.5 1013.3 0.0
15/03:00am 20.1 23.5 19.4 96 0.4 CALM 0 0 0 0 1013.5 1013.3 0.0
15/02:30am 20.7 23.7 18.5 87 1.4 CALM 0 0 0 0 1013.6 1013.4 0.0
15/02:00am 21.2 24.4 18.8 86 1.5 CALM 0 0 0 0 1013.6 1013.4 0.0
15/01:30am 21.1 24.1 18.5 85 1.6 CALM 0 0 0 0 1013.8 1013.6 0.0
15/01:00am 21.3 24.2 18.3 83 1.9 CALM 0 0 0 0 1014.0 1013.8 0.0
15/12:30am 21.3 24.3 18.5 84 1.8 CALM 0 0 0 0 1014.4 1014.2 0.0
15/12:00am 21.2 24.3 18.6 85 1.6 CALM 0 0 0 0 1014.5 1014.3 0.0
 
Date/Time
EST
Temp
°C
App
Temp
°C
Dew
Point
°C
Rel
Hum
%
Delta-T
°C
Wind Press
QNH
hPa
Press
MSL
hPa
Rain since
9am
mm
Dir  Spd
km/h
Gust
km/h
Spd
kts
Gust
kts
14/11:30pm 21.1 24.0 18.3 84 1.7 CALM 0 0 0 0 1014.8 1014.6 0.0
14/11:00pm 20.9 23.8 18.3 85 1.6 CALM 0 0 0 0 1015.0 1014.8 0.0
14/10:30pm 20.9 23.8 18.3 85 1.6 CALM 0 2 0 1 1014.9 1014.7 0.0
14/10:00pm 20.5 23.3 17.9 85 1.6 CALM 0 0 0 0 1014.9 1014.7 0.0
14/09:30pm 20.4 23.0 17.6 84 1.7 CALM 0 0 0 0 1014.6 1014.4 0.0
14/09:00pm 20.7 23.4 17.7 83 1.9 CALM 0 0 0 0 1014.5 1014.3 0.0
14/08:30pm 21.1 23.9 17.9 82 2.0 CALM 0 0 0 0 1014.4 1014.2 0.0
14/08:00pm 20.9 23.0 17.3 80 2.2 W 2 4 1 2 1014.3 1014.1 0.0
14/07:30pm 21.3 23.9 17.5 79 2.3 CALM 0 0 0 0 1013.8 1013.6 0.0
14/07:00pm 22.1 23.7 17.9 77 2.6 NNE 6 7 3 4 1013.7 1013.5 0.0
14/06:30pm 22.2 24.2 17.8 76 2.7 ENE 4 7 2 4 1013.4 1013.2 0.0
14/06:00pm 22.9 24.3 17.8 73 3.2 ENE 7 9 4 5 1013.1 1012.9 0.0
14/05:30pm 23.4 24.2 17.2 68 3.8 E 9 15 5 8 1012.7 1012.5 0.0
14/05:00pm 24.0 24.2 16.8 64 4.4 ENE 11 17 6 9 1012.3 1012.1 0.0
14/04:30pm 24.5 24.2 16.5 61 4.9 E 13 20 7 11 1012.2 1012.0 0.0
14/04:00pm 24.9 24.2 15.5 56 5.7 E 13 19 7 10 1011.9 1011.6 0.0
14/03:30pm 25.3 24.6 15.3 54 6.0 E 13 24 7 13 1012.2 1012.0 0.0
14/03:00pm 25.8 24.7 15.2 52 6.4 E 15 22 8 12 1012.3 1012.1 0.0
14/02:30pm 26.3 25.5 15.0 49 6.8 E 13 19 7 10 1012.3 1012.1 0.0
14/02:00pm 26.3 25.2 15.4 51 6.6 ENE 15 20 8 11 1012.7 1012.5 0.0
14/01:30pm 26.7 25.6 15.4 50 6.9 ENE 15 24 8 13 1013.1 1012.9 0.0
14/01:00pm 26.3 25.0 15.7 52 6.5 E 17 22 9 12 1013.5 1013.3 0.0
14/12:30pm 26.9 25.6 15.9 51 6.8 E 17 26 9 14 1014.0 1013.8 0.0
14/12:00pm 26.8 25.9 15.8 51 6.7 E 15 22 8 12 1014.3 1014.1 0.0
14/11:30am 26.8 27.0 15.8 51 6.7 ENE 9 19 5 10 1014.6 1014.4 0.0
14/11:00am 26.9 26.9 16.2 52 6.6 E 11 22 6 12 1015.0 1014.8 0.0
14/10:30am 25.5 25.6 15.5 54 6.1 ESE 9 19 5 10 1015.5 1015.3 0.0
14/10:00am 25.9 26.1 14.7 50 6.7 NE 7 19 4 10 1015.9 1015.7 0.0
14/09:30am 25.1 25.4 14.9 53 6.1 NE 7 13 4 7 1016.3 1016.1 0.0
14/09:00am 25.2 25.6 15.2 54 6.0 E 7 13 4 7 1016.5 1016.3 0.0
14/08:30am 23.7 24.4 15.5 60 4.9 SSE 6 15 3 8 1016.5 1016.3 0.0
14/08:00am 23.2 24.0 15.8 63 4.5 SE 6 9 3 5 1016.6 1016.4 0.0
14/07:30am 23.3 24.1 16.4 65 4.2 ESE 7 15 4 8 1016.3 1016.1 0.0
14/07:00am 22.8 24.1 17.0 70 3.6 ESE 6 11 3 6 1016.2 1016.0 0.0
14/06:30am 21.5 23.4 16.7 74 2.9 SSE 2 6 1 3 1015.9 1015.7 0.0
14/06:00am 21.0 23.2 17.4 80 2.2 W 2 7 1 4 1015.5 1015.3 0.0
14/05:30am 19.6 22.0 17.0 85 1.6 CALM 0 0 0 0 1015.2 1015.0 0.0
14/05:00am 19.1 21.4 16.7 86 1.4 CALM 0 0 0 0 1014.8 1014.6 0.0
14/04:30am 19.3 21.5 16.5 84 1.7 CALM 0 4 0 2 1014.5 1014.3 0.0
14/04:00am 19.8 22.1 16.8 83 1.8 CALM 0 0 0 0 1014.1 1013.9 0.0
14/03:30am 20.2 22.7 17.2 83 1.8 CALM 0 4 0 2 1014.0 1013.8 0.0
14/03:00am 19.8 22.1 16.8 83 1.8 CALM 0 0 0 0 1013.9 1013.7 0.0
14/02:30am 20.5 22.9 17.1 81 2.1 CALM 0 2 0 1 1014.0 1013.8 0.0
14/02:00am 20.9 23.4 17.3 80 2.2 CALM 0 0 0 0 1014.1 1013.9 0.0
14/01:30am 20.9 23.4 17.3 80 2.2 CALM 0 0 0 0 1014.0 1013.8 0.0
14/01:00am 20.9 23.3 17.1 79 2.3 CALM 0 0 0 0 1014.2 1014.0 0.0
14/12:30am 20.8 23.1 16.8 78 2.4 CALM 0 4 0 2 1014.2 1014.0 0.0
14/12:00am 21.3 23.4 17.1 77 2.6 SE 2 6 1 3 1014.3 1014.1 0.0
 
Date/Time
EST
Temp
°C
App
Temp
°C
Dew
Point
°C
Rel
Hum
%
Delta-T
°C
Wind Press
QNH
hPa
Press
MSL
hPa
Rain since
9am
mm
Dir  Spd
km/h
Gust
km/h
Spd
kts
Gust
kts
13/11:30pm 21.7 23.9 17.5 77 2.6 SE 2 6 1 3 1014.6 1014.4 0.0
13/11:00pm 21.9 23.7 17.5 76 2.7 SE 4 11 2 6 1014.6 1014.4 0.0
13/10:30pm 22.0 23.6 17.8 77 2.6 ESE 6 9 3 5 1014.7 1014.5 0.0
13/10:00pm 22.1 24.1 17.9 77 2.6 SE 4 9 2 5 1014.8 1014.6 0.0
13/09:30pm 22.1 23.6 17.7 76 2.7 SE 6 17 3 9 1014.6 1014.4 0.0
13/09:00pm 22.2 23.7 17.6 75 2.9 ESE 6 13 3 7 1014.3 1014.1 0.0
13/08:30pm 22.3 23.7 17.7 75 2.9 ESE 7 17 4 9 1014.1 1013.9 0.0
13/08:00pm 22.4 23.8 17.8 75 2.9 ESE 7 20 4 11 1013.8 1013.6 0.0
13/07:30pm 22.5 23.8 17.6 74 3.0 ESE 7 15 4 8 1013.3 1013.1 0.0
13/07:00pm 22.6 23.5 17.5 73 3.2 ESE 9 17 5 9 1013.0 1012.8 0.0
13/06:30pm 22.8 24.3 17.7 73 3.2 ESE 6 9 3 5 1012.7 1012.5 0.0
13/06:00pm 23.0 24.1 18.1 74 3.1 ESE 9 17 5 9 1012.1 1011.9 0.0
13/05:30pm 23.3 24.5 18.2 73 3.2 ESE 9 22 5 12 1011.6 1011.3 0.0
13/05:00pm 23.8 24.8 18.7 73 3.2 ESE 11 24 6 13 1011.0 1010.7 0.0
13/04:30pm 25.2 25.6 19.1 69 3.9 ESE 15 28 8 15 1010.2 1009.9 0.0
13/04:00pm 28.4 29.6 19.1 57 6.0 ESE 11 22 6 12 1009.3 1009.0 0.0
13/03:30pm 29.9 29.1 16.0 43 8.6 E 15 24 8 13 1008.5 1008.2 0.0
13/03:00pm 30.7 31.4 17.0 43 8.7 E 9 15 5 8 1007.9 1007.7 0.0
13/02:30pm 31.5 31.2 15.5 38 9.9 ESE 11 22 6 12 1007.6 1007.4 0.0
13/02:20pm 31.5 29.1 13.7 33 10.8 E 19 24 10 13 1007.3 1007.1 0.0
13/02:00pm 36.6 34.3 7.6 17 16.4 NW 9 15 5 8 1007.2 1007.0 0.0
13/01:30pm 36.1 34.1 7.2 17 16.1 W 7 15 4 8 1008.0 1007.8 0.0
13/01:00pm 35.7 32.7 7.7 18 15.7 W 13 35 7 19 1008.6 1008.3 0.0
13/12:30pm 34.9 33.4 9.3 21 14.7 N 7 15 4 8 1009.1 1008.8 0.0
13/12:00pm 34.3 32.3 10.2 23 14.0 NW 11 30 6 16 1009.6 1009.3 0.0
13/11:30am 33.7 31.9 10.9 25 13.3 NW 11 20 6 11 1010.1 1009.8 0.0
13/11:00am 32.5 30.6 10.5 26 12.7 NW 11 20 6 11 1010.6 1010.3 0.0
13/10:30am 32.0 30.3 11.2 28 12.1 WNW 11 19 6 10 1010.9 1010.6 0.0
13/10:00am 31.1 29.0 11.0 29 11.6 NW 13 24 7 13 1011.1 1010.8 0.0
13/09:30am 30.0 27.5 11.0 31 10.9 NNW 15 33 8 18 1011.1 1010.8 0.0
13/09:00am 28.8 26.0 11.4 34 10.0 WNW 17 35 9 19 1010.9 1010.6 0.0
13/08:30am 27.5 23.9 13.1 41 8.5 NW 24 48 13 26 1011.0 1010.7 0.0
13/08:00am 26.3 24.5 14.4 48 7.1 NW 17 43 9 23 1011.2 1010.9 0.0
13/07:30am 25.3 22.6 14.7 51 6.3 NW 22 41 12 22 1011.0 1010.7 0.0
13/07:00am 24.5 21.4 14.6 54 5.9 WNW 24 50 13 27 1011.1 1010.8 0.0
13/06:30am 23.2 20.6 16.0 64 4.4 NW 24 39 13 21 1010.9 1010.6 0.0
13/06:00am 22.5 21.8 16.3 68 3.8 NW 15 39 8 21 1010.5 1010.2 0.0
13/05:30am 21.7 20.9 16.2 71 3.3 NW 15 30 8 16 1010.0 1009.7 0.0
13/05:00am 21.6 20.0 16.1 71 3.3 NW 19 35 10 19 1009.5 1009.2 0.0
13/04:30am 21.4 20.1 15.9 71 3.3 NW 17 30 9 16 1009.4 1009.1 0.0
13/04:00am 21.6 20.0 16.1 71 3.3 NNW 19 32 10 17 1009.3 1009.0 0.0
13/03:30am 21.6 20.4 16.1 71 3.3 NNW 17 35 9 19 1009.3 1009.0 0.0
13/03:00am 21.7 20.5 16.0 70 3.4 NNW 17 33 9 18 1009.4 1009.1 0.0
13/02:30am 21.9 20.7 16.0 69 3.6 NNW 17 30 9 16 1009.5 1009.2 0.0
13/02:00am 21.9 20.3 16.0 69 3.6 NNW 19 32 10 17 1009.4 1009.1 0.0
13/01:30am 22.0 20.8 16.1 69 3.6 NNW 17 33 9 18 1010.0 1009.7 0.0
13/01:00am 22.2 20.6 16.0 68 3.7 NNW 19 37 10 20 1010.2 1009.9 0.0
13/12:30am 22.5 20.8 15.8 66 4.0 NNW 19 41 10 22 1010.2 1009.9 0.0
13/12:00am 22.6 21.1 15.4 64 4.3 NNW 17 39 9 21 1010.6 1010.3 0.0
 
Date/Time
EST
Temp
°C
App
Temp
°C
Dew
Point
°C
Rel
Hum
%
Delta-T
°C
Wind Press
QNH
hPa
Press
MSL
hPa
Rain since
9am
mm
Dir  Spd
km/h
Gust
km/h
Spd
kts
Gust
kts
12/11:30pm 22.5 21.9 14.6 61 4.7 NNW 11 20 6 11 1011.2 1010.9 0.0

Other formats

Comma delimited format used in spreadsheet applications
http://www.bom.gov.au/fwo/IDQ60801/IDQ60801.95572.axf

JavaScript Object Notation format (JSON) in row-major order
http://www.bom.gov.au/fwo/IDQ60801/IDQ60801.95572.json

Data quality

Most of these data are generated automatically and are frequently updated. Quality checks on data are not normally performed. It is possible for incorrect values to appear. Refer to information at About Latest Weather Observations and please check the disclaimer before using these data.